Time;durP1;ratioP1;P1;durP2;ratioP2;P2;SDS_P1;SDS_P2;PMS_P1;PMS_P2;Temp;Humidity;BMP_temperature;BMP_pressure;BME280_temperature;BME280_humidity;BME280_pressure;Samples;Min_cycle;Max_cycle;Signal;HPM_P1;HPM_P2
2022/11/21 00:01:19;;;;;;;0.20;0.20;;;-0.10;99.90;;;;;;5097337;28;20256;-69
2022/11/21 00:03:46;;;;;;;0.10;0.10;;;-0.20;99.90;;;;;;5096927;28;20222;-69
2022/11/21 00:06:14;;;;;;;0.20;0.20;;;-0.10;99.90;;;;;;5095287;28;20206;-70
2022/11/21 00:08:41;;;;;;;0.10;0.10;;;0.00;99.90;;;;;;5093954;28;20197;-69
2022/11/21 00:11:08;;;;;;;0.10;0.10;;;-0.20;99.90;;;;;;5104053;27;20198;-69
2022/11/21 00:13:35;;;;;;;0.20;0.20;;;0.00;99.90;;;;;;5107866;27;20232;-69
2022/11/21 00:16:05;;;;;;;0.10;0.10;;;-0.10;99.90;;;;;;5093098;28;20262;-69
2022/11/21 00:18:33;;;;;;;0.10;0.10;;;0.20;99.90;;;;;;5097635;28;20751;-69
2022/11/21 00:21:05;;;;;;;0.10;0.10;;;0.20;99.90;;;;;;5105050;27;20198;-70
2022/11/21 00:23:32;;;;;;;0.20;0.20;;;0.10;99.90;;;;;;5096591;28;20221;-70
2022/11/21 00:26:03;;;;;;;0.10;0.10;;;0.00;99.90;;;;;;5092136;28;20202;-70
2022/11/21 00:28:30;;;;;;;0.20;0.20;;;0.00;99.90;;;;;;5095210;28;20204;-69
2022/11/21 00:30:58;;;;;;;0.20;0.20;;;0.10;99.90;;;;;;5094971;28;20229;-70
2022/11/21 00:33:26;;;;;;;0.10;0.10;;;0.10;99.90;;;;;;5095584;28;20216;-69
2022/11/21 00:35:53;;;;;;;0.20;0.20;;;0.10;99.90;;;;;;5088085;28;20197;-69
2022/11/21 00:38:23;;;;;;;0.20;0.20;;;0.10;99.90;;;;;;5094765;28;20202;-69
2022/11/21 00:40:50;;;;;;;0.20;0.20;;;0.10;99.90;;;;;;5088381;28;20201;-70
2022/11/21 00:43:19;;;;;;;0.10;0.10;;;0.30;99.90;;;;;;5095040;28;20307;-70
2022/11/21 00:45:46;;;;;;;0.10;0.10;;;0.20;99.90;;;;;;5106984;27;20345;-69
2022/11/21 00:48:14;;;;;;;0.20;0.20;;;0.10;99.90;;;;;;5093838;28;20204;-70
2022/11/21 00:50:42;;;;;;;0.10;0.10;;;0.20;99.90;;;;;;5092934;28;20201;-69
2022/11/21 00:53:10;;;;;;;0.20;0.20;;;0.30;99.90;;;;;;5094782;28;20225;-70
2022/11/21 00:55:37;;;;;;;0.20;0.20;;;0.10;99.90;;;;;;5096681;28;20217;-70
2022/11/21 00:58:04;;;;;;;0.10;0.10;;;0.10;99.90;;;;;;5086851;28;20279;-69
2022/11/21 01:00:31;;;;;;;0.13;0.13;;;0.40;99.90;;;;;;5097019;28;20304;-70
2022/11/21 01:02:59;;;;;;;0.10;0.10;;;0.40;99.90;;;;;;5096112;28;20239;-70
2022/11/21 01:05:26;;;;;;;0.10;0.10;;;0.30;99.90;;;;;;5097321;28;20190;-69
2022/11/21 01:07:54;;;;;;;0.10;0.10;;;0.20;99.90;;;;;;5093731;28;20205;-70
2022/11/21 01:10:21;;;;;;;0.10;0.10;;;0.00;99.90;;;;;;5094875;28;20658;-69
2022/11/21 01:12:48;;;;;;;0.20;0.20;;;0.20;99.90;;;;;;5096927;28;20341;-69
2022/11/21 01:15:16;;;;;;;0.10;0.10;;;0.20;99.90;;;;;;5088516;28;20205;-69
2022/11/21 01:17:43;;;;;;;0.10;0.10;;;0.20;99.90;;;;;;5091545;28;20216;-70
2022/11/21 01:20:11;;;;;;;0.20;0.20;;;0.50;99.90;;;;;;5092358;28;20229;-70
2022/11/21 01:22:38;;;;;;;0.10;0.10;;;0.60;99.90;;;;;;5095130;28;20286;-69
2022/11/21 01:25:08;;;;;;;0.10;0.10;;;0.30;99.90;;;;;;5096022;28;20246;-69
2022/11/21 01:27:35;;;;;;;0.20;0.20;;;0.40;99.90;;;;;;5095072;28;20193;-70
2022/11/21 01:30:02;;;;;;;0.13;0.13;;;0.60;99.90;;;;;;5086820;28;20201;-69
2022/11/21 01:32:29;;;;;;;0.20;0.20;;;0.20;99.90;;;;;;5095391;28;20221;-69
2022/11/21 01:34:57;;;;;;;0.17;0.17;;;0.20;99.90;;;;;;5095130;28;20201;-70
2022/11/21 01:37:24;;;;;;;0.10;0.10;;;0.40;99.90;;;;;;5093368;28;20260;-70
2022/11/21 01:39:51;;;;;;;0.10;0.10;;;0.00;99.90;;;;;;5094305;28;20243;-70
2022/11/21 01:42:22;;;;;;;0.10;0.10;;;0.20;99.90;;;;;;5092945;28;20212;-69
2022/11/21 01:44:52;;;;;;;0.20;0.20;;;0.10;99.90;;;;;;5103421;27;20202;-69
2022/11/21 01:47:21;;;;;;;0.20;0.20;;;0.40;99.90;;;;;;5095455;28;20197;-69
2022/11/21 01:49:49;;;;;;;0.10;0.10;;;0.20;99.90;;;;;;5094918;27;20201;-70
2022/11/21 01:52:20;;;;;;;0.10;0.10;;;0.10;99.90;;;;;;5094710;28;20201;-69
2022/11/21 01:54:51;;;;;;;0.10;0.10;;;0.30;99.90;;;;;;5096112;28;20232;-69
2022/11/21 01:57:25;;;;;;;0.20;0.20;;;0.10;99.90;;;;;;5094884;28;20266;-69
2022/11/21 01:59:59;;;;;;;0.10;0.10;;;0.20;99.90;;;;;;5096045;28;20307;-70
2022/11/21 02:02:30;;;;;;;0.10;0.10;;;0.40;99.90;;;;;;5094728;28;20252;-70
2022/11/21 02:05:00;;;;;;;0.10;0.10;;;0.30;99.90;;;;;;5095429;28;20290;-70
2022/11/21 02:07:29;;;;;;;0.10;0.10;;;0.20;99.90;;;;;;5094298;28;20201;-70
2022/11/21 02:10:00;;;;;;;0.20;0.20;;;0.10;99.90;;;;;;5084874;28;20198;-69
2022/11/21 02:12:33;;;;;;;0.10;0.10;;;0.10;99.90;;;;;;5091913;28;20278;-70
2022/11/21 02:15:01;;;;;;;0.10;0.10;;;0.10;99.90;;;;;;5095285;28;20205;-69
2022/11/21 02:17:30;;;;;;;0.20;0.20;;;0.40;99.90;;;;;;5104918;28;20208;-68
2022/11/21 02:19:59;;;;;;;0.10;0.10;;;0.30;99.90;;;;;;5094321;28;20221;-68
2022/11/21 02:22:34;;;;;;;0.10;0.10;;;0.10;99.90;;;;;;5096719;28;20221;-69
2022/11/21 02:25:05;;;;;;;0.10;0.10;;;0.40;99.90;;;;;;5096842;28;20204;-69
2022/11/21 02:27:33;;;;;;;0.20;0.20;;;0.20;99.90;;;;;;5092919;28;20197;-68
2022/11/21 02:30:03;;;;;;;0.15;0.15;;;0.30;99.90;;;;;;5086635;28;20198;-69
2022/11/21 02:32:33;;;;;;;0.10;0.10;;;0.10;99.90;;;;;;5088748;28;20381;-68
2022/11/21 02:35:01;;;;;;;0.10;0.10;;;0.10;99.90;;;;;;5092032;28;20250;-68
2022/11/21 02:37:28;;;;;;;0.10;0.10;;;0.00;99.90;;;;;;5096208;28;20205;-69
2022/11/21 02:39:58;;;;;;;0.10;0.10;;;0.00;99.90;;;;;;5094514;28;20217;-68
2022/11/21 02:42:33;;;;;;;0.10;0.10;;;0.20;99.90;;;;;;5101028;28;20665;-69
2022/11/21 02:45:10;;;;;;;0.10;0.10;;;-0.10;99.90;;;;;;5096922;28;20272;-69
2022/11/21 02:47:39;;;;;;;0.10;0.10;;;0.30;99.90;;;;;;5109565;27;20208;-70
2022/11/21 02:50:13;;;;;;;0.10;0.10;;;0.00;99.90;;;;;;5097727;28;20201;-69
2022/11/21 02:52:40;;;;;;;0.20;0.20;;;0.30;99.90;;;;;;5099849;28;20250;-69
2022/11/21 02:55:10;;;;;;;0.17;0.17;;;0.30;99.90;;;;;;5100268;28;20193;-69
2022/11/21 02:57:39;;;;;;;0.10;0.10;;;0.10;99.90;;;;;;5098075;28;20209;-69
2022/11/21 03:00:07;;;;;;;0.20;0.20;;;0.30;99.90;;;;;;5099782;28;20209;-69
2022/11/21 03:02:35;;;;;;;0.20;0.20;;;0.10;99.90;;;;;;5097321;28;20201;-69
2022/11/21 03:05:03;;;;;;;0.20;0.20;;;0.00;99.90;;;;;;5097643;28;20614;-69
2022/11/21 03:07:30;;;;;;;0.10;0.10;;;0.30;99.90;;;;;;5092117;28;20201;-69
2022/11/21 03:09:57;;;;;;;0.20;0.20;;;0.20;99.90;;;;;;5098159;28;20308;-70
2022/11/21 03:12:24;;;;;;;0.10;0.10;;;0.10;99.90;;;;;;5096451;28;20197;-69
2022/11/21 03:14:53;;;;;;;0.20;0.20;;;0.00;99.90;;;;;;5097519;28;20215;-69
2022/11/21 03:17:20;;;;;;;0.10;0.10;;;0.10;99.90;;;;;;5096083;28;20242;-69
2022/11/21 03:19:47;;;;;;;0.10;0.10;;;0.30;99.90;;;;;;5107696;27;20229;-70
2022/11/21 03:22:15;;;;;;;0.20;0.20;;;0.20;99.90;;;;;;5097223;28;20197;-69
2022/11/21 03:24:43;;;;;;;0.10;0.10;;;0.10;99.90;;;;;;5094210;28;20214;-69
2022/11/21 03:27:10;;;;;;;0.13;0.13;;;0.30;99.90;;;;;;5099660;28;20194;-69
2022/11/21 03:29:37;;;;;;;0.20;0.20;;;-0.10;99.90;;;;;;5099093;28;20355;-69
2022/11/21 03:32:05;;;;;;;0.10;0.10;;;0.20;99.90;;;;;;5094673;28;20615;-68
2022/11/21 03:34:32;;;;;;;0.20;0.20;;;0.00;99.90;;;;;;5096019;28;20228;-68
2022/11/21 03:37:00;;;;;;;0.20;0.20;;;0.30;99.90;;;;;;5090376;28;20198;-69
2022/11/21 03:39:27;;;;;;;0.10;0.10;;;0.00;99.90;;;;;;5106619;27;20315;-69
2022/11/21 03:41:54;;;;;;;0.15;0.15;;;0.00;99.90;;;;;;5095943;28;20220;-69
2022/11/21 03:44:21;;;;;;;0.10;0.10;;;0.30;99.90;;;;;;5097699;28;20217;-69
2022/11/21 03:46:49;;;;;;;0.10;0.10;;;0.00;99.90;;;;;;5096194;28;20205;-70
2022/11/21 03:49:17;;;;;;;0.10;0.10;;;-0.10;99.90;;;;;;5088642;28;20205;-69
2022/11/21 03:51:45;;;;;;;0.20;0.20;;;0.20;99.90;;;;;;5095018;28;20204;-69
2022/11/21 03:54:12;;;;;;;0.10;0.10;;;0.20;99.90;;;;;;5099935;28;20210;-69
2022/11/21 03:56:39;;;;;;;0.20;0.20;;;0.20;99.90;;;;;;5095815;28;20237;-69
2022/11/21 03:59:07;;;;;;;0.10;0.10;;;0.20;99.90;;;;;;5098451;28;20259;-68
2022/11/21 04:01:34;;;;;;;0.20;0.20;;;0.10;99.90;;;;;;5093859;28;20252;-68
2022/11/21 04:04:01;;;;;;;0.20;0.20;;;-0.10;99.90;;;;;;5096434;28;20221;-69
2022/11/21 04:06:30;;;;;;;0.20;0.20;;;-0.10;99.90;;;;;;5095481;28;20205;-69
2022/11/21 04:08:58;;;;;;;0.20;0.20;;;-0.20;99.90;;;;;;5095923;28;20201;-69
2022/11/21 04:11:25;;;;;;;0.10;0.10;;;-0.20;99.90;;;;;;5097971;28;20265;-69
2022/11/21 04:13:52;;;;;;;0.20;0.20;;;0.00;99.90;;;;;;5105086;27;20221;-69
2022/11/21 04:16:20;;;;;;;0.10;0.10;;;-0.10;99.90;;;;;;5096743;28;20201;-69
2022/11/21 04:18:47;;;;;;;0.10;0.10;;;0.00;99.90;;;;;;5094256;28;20206;-69
2022/11/21 04:21:14;;;;;;;0.10;0.10;;;-0.10;99.90;;;;;;5096120;28;20218;-70
2022/11/21 04:23:43;;;;;;;0.10;0.10;;;0.10;99.90;;;;;;5096601;28;20256;-69
2022/11/21 04:26:11;;;;;;;0.10;0.10;;;-0.10;99.90;;;;;;5095358;28;20212;-69
2022/11/21 04:28:38;;;;;;;0.20;0.20;;;-0.10;99.90;;;;;;5093692;28;20217;-69
2022/11/21 04:31:06;;;;;;;0.10;0.10;;;-0.20;99.90;;;;;;5096703;28;20204;-69
2022/11/21 04:33:33;;;;;;;0.10;0.10;;;0.00;99.90;;;;;;5097549;28;20230;-69
2022/11/21 04:36:01;;;;;;;0.10;0.10;;;0.00;99.90;;;;;;5089230;28;20212;-70
2022/11/21 04:38:28;;;;;;;0.20;0.20;;;-0.20;99.90;;;;;;5093637;28;20193;-69
2022/11/21 04:40:57;;;;;;;0.10;0.10;;;0.00;99.90;;;;;;5106068;27;20284;-69
2022/11/21 04:43:24;;;;;;;0.10;0.10;;;0.10;99.90;;;;;;5096172;28;20240;-70
2022/11/21 04:45:52;;;;;;;0.10;0.10;;;0.20;99.90;;;;;;5104223;27;20205;-69
2022/11/21 04:48:19;;;;;;;0.10;0.10;;;0.20;99.90;;;;;;5096488;28;20189;-69
2022/11/21 04:50:46;;;;;;;0.15;0.15;;;0.00;99.90;;;;;;5097850;28;20200;-69
2022/11/21 04:53:13;;;;;;;0.05;0.05;;;0.20;99.90;;;;;;5094376;28;20308;-69
2022/11/21 04:55:40;;;;;;;0.10;0.10;;;-0.10;99.90;;;;;;5093681;28;20312;-70
2022/11/21 04:58:09;;;;;;;0.10;0.10;;;0.20;99.90;;;;;;5105015;27;20201;-69
2022/11/21 05:00:36;;;;;;;0.10;0.10;;;-0.20;99.90;;;;;;5086227;28;20282;-69
2022/11/21 05:03:04;;;;;;;0.10;0.10;;;0.00;99.90;;;;;;5086252;28;20366;-71
2022/11/21 05:05:31;;;;;;;0.10;0.10;;;0.10;99.90;;;;;;5094145;28;20221;-69
2022/11/21 05:07:58;;;;;;;0.20;0.20;;;-0.10;99.90;;;;;;5097910;28;20315;-70
2022/11/21 05:10:25;;;;;;;0.13;0.13;;;-0.10;99.90;;;;;;5096719;28;20201;-70
2022/11/21 05:15:50;;;;;;;0.10;0.10;;;0.30;99.90;;;;;;5094878;28;20216;-70
2022/11/21 05:18:18;;;;;;;0.20;0.20;;;0.20;99.90;;;;;;5088901;28;20206;-70
2022/11/21 05:20:45;;;;;;;0.20;0.20;;;-0.10;99.90;;;;;;5095329;28;20438;-70
2022/11/21 05:23:13;;;;;;;0.10;0.10;;;0.20;99.90;;;;;;5095837;28;20220;-70
2022/11/21 05:25:40;;;;;;;0.10;0.10;;;-0.10;99.90;;;;;;5095109;28;20224;-70
2022/11/21 05:28:07;;;;;;;0.10;0.10;;;0.00;99.90;;;;;;5088850;28;20197;-70
2022/11/21 05:30:36;;;;;;;0.10;0.10;;;0.00;99.90;;;;;;5092513;28;20304;-71
2022/11/21 05:33:05;;;;;;;0.10;0.10;;;0.00;99.90;;;;;;5095113;28;20312;-70
2022/11/21 05:35:33;;;;;;;0.10;0.10;;;0.00;99.90;;;;;;5096293;28;20194;-70
2022/11/21 05:38:00;;;;;;;0.10;0.10;;;0.10;99.90;;;;;;5094548;28;20217;-70
2022/11/21 05:40:27;;;;;;;0.10;0.10;;;-0.20;99.90;;;;;;5092770;28;20298;-71
2022/11/21 05:45:44;;;;;;;0.20;0.20;;;-0.10;99.90;;;;;;5080563;28;20204;-70
2022/11/21 05:48:13;;;;;;;0.20;0.20;;;0.10;99.90;;;;;;5085108;28;20205;-70
2022/11/21 05:50:40;;;;;;;0.13;0.13;;;0.10;99.90;;;;;;5094568;28;20190;-70
2022/11/21 05:53:07;;;;;;;0.15;0.15;;;-0.10;99.90;;;;;;5097411;28;20213;-70
2022/11/21 05:55:34;;;;;;;0.10;0.10;;;-0.10;99.90;;;;;;5094701;28;20240;-70
2022/11/21 05:58:02;;;;;;;0.20;0.20;;;0.20;99.90;;;;;;5094385;28;20217;-70
2022/11/21 06:00:30;;;;;;;0.10;0.10;;;0.00;99.90;;;;;;5104331;28;20236;-70
2022/11/21 06:05:43;;;;;;;0.20;0.20;;;0.30;99.90;;;;;;5094065;28;20205;-70
2022/11/21 06:08:10;;;;;;;0.10;0.10;;;0.00;99.90;;;;;;5091621;28;20201;-70
2022/11/21 06:10:39;;;;;;;0.10;0.10;;;0.10;99.90;;;;;;5088042;28;20189;-70
2022/11/21 06:13:20;;;;;;;0.10;0.10;;;0.20;99.90;;;;;;5093350;28;20229;-70
2022/11/21 06:15:53;;;;;;;0.10;0.10;;;0.20;99.90;;;;;;5084127;28;20214;-69
2022/11/21 06:18:21;;;;;;;0.20;0.20;;;0.10;99.90;;;;;;5094613;28;20189;-70
2022/11/21 06:20:50;;;;;;;0.10;0.10;;;0.10;99.90;;;;;;5094332;28;20221;-69
2022/11/21 06:23:17;;;;;;;0.10;0.10;;;0.20;99.90;;;;;;5087176;28;20308;-70
2022/11/21 06:25:45;;;;;;;0.10;0.10;;;0.10;99.90;;;;;;5092782;28;20288;-70
2022/11/21 06:28:13;;;;;;;0.20;0.20;;;-0.10;99.90;;;;;;5094959;28;20205;-70
2022/11/21 06:30:40;;;;;;;0.20;0.20;;;0.10;99.90;;;;;;5091674;28;20197;-70
2022/11/21 06:33:08;;;;;;;0.10;0.10;;;0.00;99.90;;;;;;5094129;28;20217;-70
2022/11/21 06:35:37;;;;;;;0.20;0.20;;;-0.30;99.90;;;;;;5092568;28;20289;-69
2022/11/21 06:38:06;;;;;;;0.20;0.20;;;0.00;99.90;;;;;;5094555;28;20197;-70
2022/11/21 06:40:33;;;;;;;0.20;0.20;;;-0.20;99.90;;;;;;5086132;28;20221;-70
2022/11/21 06:43:01;;;;;;;0.13;0.13;;;-0.40;99.90;;;;;;5089485;28;20249;-70
2022/11/21 06:45:28;;;;;;;0.13;0.13;;;0.00;99.90;;;;;;5093662;28;20197;-70
2022/11/21 06:47:56;;;;;;;0.10;0.10;;;-0.20;99.90;;;;;;5096875;28;20209;-70
2022/11/21 06:50:23;;;;;;;0.10;0.10;;;-0.30;99.90;;;;;;5094743;28;20719;-70
2022/11/21 06:52:51;;;;;;;0.10;0.10;;;-0.40;99.90;;;;;;5093172;28;20243;-70
2022/11/21 06:55:20;;;;;;;0.10;0.10;;;-0.20;99.90;;;;;;5087406;28;20205;-70
2022/11/21 06:57:47;;;;;;;0.10;0.10;;;-0.40;99.90;;;;;;5094442;28;20213;-70
2022/11/21 07:00:15;;;;;;;0.10;0.10;;;-0.30;99.90;;;;;;5094016;28;20318;-70
2022/11/21 07:02:42;;;;;;;0.20;0.20;;;-0.20;99.90;;;;;;5085653;28;20233;-70
2022/11/21 07:05:09;;;;;;;0.20;0.20;;;-0.50;99.90;;;;;;5085525;28;20198;-69
2022/11/21 07:07:37;;;;;;;0.20;0.20;;;;;;;;;;5092925;28;20201;-70
2022/11/21 07:10:04;;;;;;;0.20;0.20;;;-0.50;99.90;;;;;;5093325;28;20216;-69
2022/11/21 07:15:19;;;;;;;0.20;0.20;;;-0.70;99.90;;;;;;5084618;28;20205;-69
2022/11/21 07:17:46;;;;;;;0.20;0.20;;;-0.50;99.90;;;;;;5090008;28;20396;-70
2022/11/21 07:20:13;;;;;;;0.10;0.10;;;-0.50;99.90;;;;;;5096659;28;20273;-70
2022/11/21 07:22:41;;;;;;;0.10;0.10;;;-0.70;99.90;;;;;;5094244;28;20229;-68
2022/11/21 07:25:09;;;;;;;0.10;0.10;;;-0.70;99.90;;;;;;5097370;28;20193;-70
2022/11/21 07:27:37;;;;;;;0.10;0.10;;;-0.60;99.90;;;;;;5096911;28;20201;-70
2022/11/21 07:30:05;;;;;;;0.20;0.20;;;-0.60;99.90;;;;;;5097175;28;20204;-70
2022/11/21 07:32:32;;;;;;;0.20;0.20;;;-0.40;99.90;;;;;;5089257;28;20198;-70
2022/11/21 07:35:00;;;;;;;0.10;0.10;;;-0.70;99.90;;;;;;5098177;28;20197;-69
2022/11/21 07:37:27;;;;;;;0.13;0.13;;;-0.60;99.90;;;;;;5103101;27;20201;-70
2022/11/21 07:39:54;;;;;;;0.10;0.10;;;-0.50;99.90;;;;;;5089355;28;20250;-70
2022/11/21 07:42:22;;;;;;;0.20;0.20;;;-0.50;99.90;;;;;;5097547;28;20217;-69
2022/11/21 07:44:50;;;;;;;0.20;0.20;;;-0.60;99.90;;;;;;5086958;28;20199;-70
2022/11/21 07:47:18;;;;;;;0.20;0.20;;;-0.50;99.90;;;;;;5096631;28;20204;-70
2022/11/21 07:49:45;;;;;;;0.10;0.10;;;-0.40;99.90;;;;;;5089152;28;20216;-70
2022/11/21 07:52:13;;;;;;;0.20;0.20;;;-0.50;99.90;;;;;;5100111;28;20204;-70
2022/11/21 07:54:40;;;;;;;0.20;0.20;;;-0.10;99.90;;;;;;5096219;28;20228;-70
2022/11/21 07:57:08;;;;;;;0.15;0.15;;;0.00;99.90;;;;;;5096796;28;20200;-70
2022/11/21 07:59:36;;;;;;;0.17;0.17;;;0.40;99.90;;;;;;5096677;28;20197;-69
2022/11/21 08:02:04;;;;;;;0.20;0.20;;;-0.10;99.90;;;;;;5096448;28;20221;-75
2022/11/21 08:04:31;;;;;;;0.10;0.10;;;0.20;99.90;;;;;;5093326;28;20216;-76
2022/11/21 08:06:59;;;;;;;0.10;0.10;;;0.30;99.90;;;;;;5098015;28;20196;-70
2022/11/21 08:09:28;;;;;;;0.10;0.10;;;0.40;99.90;;;;;;5097337;28;20235;-70
2022/11/21 08:11:56;;;;;;;0.20;0.20;;;0.60;99.90;;;;;;5109525;27;20222;-70
2022/11/21 08:14:23;;;;;;;0.20;0.20;;;0.80;99.90;;;;;;5094336;28;20267;-70
2022/11/21 08:16:52;;;;;;;0.20;0.20;;;1.00;99.90;;;;;;5096688;28;20216;-72
2022/11/21 08:19:20;;;;;;;0.10;0.10;;;0.90;99.90;;;;;;5096782;28;20204;-71
2022/11/21 08:21:48;;;;;;;0.20;0.20;;;1.20;99.90;;;;;;5084821;28;20215;-71
2022/11/21 08:24:16;;;;;;;0.10;0.10;;;1.30;99.90;;;;;;5087617;28;20831;-71
2022/11/21 08:26:43;;;;;;;0.10;0.10;;;1.40;99.90;;;;;;5097681;28;20205;-70
2022/11/21 08:29:12;;;;;;;0.10;0.10;;;1.50;99.90;;;;;;5095645;28;20216;-71
2022/11/21 08:31:39;;;;;;;0.10;0.10;;;1.60;99.90;;;;;;5095765;28;20220;-70
2022/11/21 08:34:06;;;;;;;0.20;0.20;;;1.70;99.90;;;;;;5086853;28;20224;-71
2022/11/21 08:36:35;;;;;;;0.20;0.20;;;1.90;99.90;;;;;;5096400;28;20274;-69
2022/11/21 08:39:03;;;;;;;0.20;0.20;;;2.00;99.90;;;;;;5097517;28;20227;-70
2022/11/21 08:44:15;;;;;;;0.10;0.10;;;2.00;99.90;;;;;;5094769;28;20634;-71
2022/11/21 08:46:42;;;;;;;0.10;0.10;;;2.20;99.90;;;;;;5092797;28;20201;-71
2022/11/21 08:49:09;;;;;;;0.10;0.10;;;2.30;99.90;;;;;;5088070;28;20205;-71
2022/11/21 08:51:38;;;;;;;0.10;0.10;;;2.10;99.90;;;;;;5087835;28;20263;-70
2022/11/21 08:54:07;;;;;;;0.10;0.10;;;2.30;99.90;;;;;;5099955;28;20212;-70
2022/11/21 08:56:34;;;;;;;0.10;0.10;;;2.10;99.90;;;;;;5095209;28;20613;-70
2022/11/21 08:59:01;;;;;;;0.10;0.10;;;2.40;99.90;;;;;;5096567;28;20608;-70
2022/11/21 09:01:28;;;;;;;0.10;0.10;;;2.40;99.90;;;;;;5094064;28;20647;-70
2022/11/21 09:03:55;;;;;;;0.10;0.10;;;2.40;99.90;;;;;;5096487;28;20259;-70
2022/11/21 09:06:23;;;;;;;0.10;0.10;;;2.20;99.90;;;;;;5085167;28;20627;-70
2022/11/21 09:08:51;;;;;;;0.10;0.10;;;2.40;99.90;;;;;;5096058;28;20224;-70
2022/11/21 09:11:18;;;;;;;0.10;0.10;;;2.40;99.90;;;;;;5094379;28;20611;-70
2022/11/21 09:18:01;;;;;;;0.10;0.10;;;2.40;99.90;;;;;;5095233;28;20686;-70
2022/11/21 09:19:20;;;;;;;0.10;0.10;;;;;;;;;;5091696;28;20611;-71
2022/11/21 09:21:48;;;;;;;0.10;0.10;;;2.60;99.90;;;;;;5097628;28;20660;-71
2022/11/21 09:24:18;;;;;;;0.10;0.10;;;2.60;99.90;;;;;;5095564;28;20634;-70
2022/11/21 09:26:45;;;;;;;0.10;0.10;;;2.60;99.90;;;;;;5096079;28;20702;-72
2022/11/21 09:29:15;;;;;;;0.10;0.10;;;2.80;99.90;;;;;;5093831;28;20619;-71
2022/11/21 09:31:43;;;;;;;0.10;0.10;;;3.00;99.90;;;;;;5097778;28;20973;-71
2022/11/21 09:34:10;;;;;;;0.20;0.20;;;2.80;99.90;;;;;;5095211;28;20634;-71
2022/11/21 09:36:38;;;;;;;0.10;0.10;;;2.80;99.90;;;;;;5093126;28;20633;-71
2022/11/21 09:39:05;;;;;;;0.10;0.10;;;;;;;;;;5095008;28;20623;-71
2022/11/21 09:41:52;;;;;;;0.10;0.10;;;;;;;;;;5089393;28;20639;-70
2022/11/21 09:44:26;;;;;;;0.10;0.10;;;;;;;;;;5095328;28;20651;-71
2022/11/21 09:46:56;;;;;;;0.10;0.10;;;;;;;;;;5090907;28;20615;-72
2022/11/21 09:49:25;;;;;;;0.10;0.10;;;;;;;;;;5095483;28;20622;-72
2022/11/21 09:51:53;;;;;;;0.10;0.10;;;;;;;;;;5090619;28;20714;-72
2022/11/21 09:54:25;;;;;;;0.20;0.20;;;;;;;;;;5092801;28;20642;-72
2022/11/21 09:56:54;;;;;;;0.10;0.10;;;;;;;;;;5095338;28;20615;-72
2022/11/21 09:59:29;;;;;;;0.10;0.10;;;;;;;;;;5096611;28;20615;-72
2022/11/21 10:01:57;;;;;;;0.10;0.10;;;3.00;99.90;;;;;;5093695;28;20654;-71
2022/11/21 10:04:25;;;;;;;0.10;0.10;;;3.20;99.90;;;;;;5106804;27;20659;-72
2022/11/21 10:07:01;;;;;;;0.10;0.10;;;3.20;99.90;;;;;;5087907;28;20623;-72
2022/11/21 10:09:43;;;;;;;0.10;0.10;;;2.80;99.90;;;;;;5088300;28;20779;-71
2022/11/21 10:15:06;;;;;;;0.10;0.10;;;;;;;;;;5104232;28;20622;-70
2022/11/21 10:17:39;;;;;;;0.10;0.10;;;;;;;;;;5092450;28;20614;-70
2022/11/21 10:20:14;;;;;;;0.10;0.10;;;;;;;;;;5093485;28;20672;-71
2022/11/21 10:22:56;;;;;;;0.10;0.10;;;;;;;;;;5086190;28;20728;-71
2022/11/21 10:25:25;;;;;;;0.10;0.10;;;;;;;;;;5086566;28;20631;-73
2022/11/21 10:27:55;;;;;;;0.10;0.10;;;;;;;;;;5085752;28;20607;-71
2022/11/21 10:30:23;;;;;;;0.10;0.10;;;;;;;;;;5091194;28;20730;-71
2022/11/21 10:32:53;;;;;;;0.10;0.10;;;3.10;99.90;;;;;;5084878;28;20657;-71
2022/11/21 10:35:24;;;;;;;0.10;0.10;;;3.30;99.90;;;;;;5084948;28;20627;-71
2022/11/21 10:37:54;;;;;;;0.10;0.10;;;3.40;99.90;;;;;;5104204;28;20622;-70
2022/11/21 10:40:32;;;;;;;0.10;0.10;;;3.10;99.90;;;;;;5090077;28;20620;-71
2022/11/21 10:45:15;;;;;;;0.20;0.20;;;3.00;99.90;;;;;;5095591;28;20666;-71
2022/11/21 10:45:52;;;;;;;0.10;0.10;;;3.20;99.90;;;;;;5092976;28;20711;-71
2022/11/21 10:48:20;;;;;;;0.10;0.10;;;3.60;99.90;;;;;;5092004;28;20614;-71
2022/11/21 10:51:02;;;;;;;0.10;0.10;;;3.80;99.90;;;;;;5084555;28;21524;-70
2022/11/21 10:56:18;;;;;;;0.10;0.10;;;4.50;99.90;;;;;;5098231;28;20686;-69
2022/11/21 10:58:49;;;;;;;0.10;0.10;;;4.40;99.90;;;;;;5096791;28;20684;-71
2022/11/21 11:01:21;;;;;;;0.10;0.10;;;;;;;;;;5090805;28;20623;-70
2022/11/21 11:03:49;;;;;;;0.10;0.10;;;;;;;;;;5089747;28;20642;-70
2022/11/21 11:06:28;;;;;;;0.10;0.10;;;;;;;;;;5096611;28;20998;-70
2022/11/21 11:08:56;;;;;;;0.10;0.10;;;;;;;;;;5097644;28;20703;-70
2022/11/21 11:11:24;;;;;;;0.10;0.10;;;;;;;;;;5089509;28;20625;-71
2022/11/21 11:14:00;;;;;;;0.10;0.10;;;;;;;;;;5097910;28;20752;-71
2022/11/21 11:16:28;;;;;;;0.10;0.10;;;;;;;;;;5100543;28;20598;-70
2022/11/21 11:18:57;;;;;;;0.10;0.10;;;;;;;;;;5096041;28;20747;-73
2022/11/21 11:21:25;;;;;;;0.10;0.10;;;;;;;;;;5099914;28;20614;-71
2022/11/21 11:23:54;;;;;;;0.10;0.10;;;;;;;;;;5106030;27;20702;-71
2022/11/21 11:26:23;;;;;;;0.20;0.20;;;;;;;;;;5097686;28;20754;-71
2022/11/21 11:28:51;;;;;;;0.10;0.10;;;;;;;;;;5105223;27;20622;-70
2022/11/21 11:31:19;;;;;;;0.10;0.10;;;;;;;;;;5090282;28;20644;-70
2022/11/21 11:33:52;;;;;;;0.10;0.10;;;;;;;;;;5098623;28;21273;-70
2022/11/21 11:36:23;;;;;;;0.10;0.10;;;;;;;;;;5100572;28;20603;-71
2022/11/21 11:38:53;;;;;;;0.10;0.10;;;;;;;;;;5108043;27;20654;-69
2022/11/21 11:47:29;;;;;;;0.10;0.10;;;;;;;;;;5098211;28;20655;-70
2022/11/21 11:47:31;;;;;;;0.10;0.10;;;;;;;;;;5107756;27;20691;-70
2022/11/21 11:50:14;;;;;;;0.10;0.10;;;;;;;;;;5095855;28;20712;-69
2022/11/21 11:52:50;;;;;;;0.10;0.10;;;;;;;;;;5091414;28;20643;-69
2022/11/21 11:55:21;;;;;;;0.10;0.10;;;;;;;;;;5096087;28;20663;-71
2022/11/21 11:57:51;;;;;;;0.10;0.10;;;;;;;;;;5095498;28;20610;-70
2022/11/21 12:00:25;;;;;;;0.10;0.10;;;;;;;;;;5094961;28;20603;-70
2022/11/21 12:02:58;;;;;;;0.10;0.10;;;;;;;;;;5096229;28;21253;-69
2022/11/21 12:05:27;;;;;;;0.10;0.10;;;;;;;;;;5097299;28;20688;-70
2022/11/21 12:08:00;;;;;;;0.10;0.10;;;;;;;;;;5097314;28;20638;-70
2022/11/21 12:10:30;;;;;;;0.10;0.10;;;;;;;;;;5096717;28;20607;-70
2022/11/21 12:13:03;;;;;;;0.00;0.00;;;;;;;;;;5093991;28;20664;-70
2022/11/21 12:15:51;;;;;;;0.10;0.10;;;;;;;;;;5097017;28;20615;-69
2022/11/21 12:18:25;;;;;;;0.10;0.10;;;;;;;;;;5098090;28;20629;-70
2022/11/21 12:20:55;;;;;;;0.10;0.10;;;;;;;;;;5109779;27;20623;-69
2022/11/21 12:23:24;;;;;;;0.10;0.10;;;;;;;;;;5088759;28;20654;-70
2022/11/21 12:25:59;;;;;;;0.10;0.10;;;;;;;;;;5097674;28;20615;-70
2022/11/21 12:28:31;;;;;;;0.10;0.10;;;;;;;;;;5097362;28;20667;-70
2022/11/21 12:31:03;;;;;;;0.10;0.10;;;;;;;;;;5094714;28;20611;-70
2022/11/21 12:33:35;;;;;;;0.10;0.10;;;;;;;;;;5092974;28;20652;-70
2022/11/21 12:36:20;;;;;;;0.10;0.10;;;;;;;;;;5093304;28;20603;-70
2022/11/21 12:38:55;;;;;;;0.10;0.10;;;;;;;;;;5083646;28;20657;-70
2022/11/21 12:44:20;;;;;;;0.10;0.10;;;;;;;;;;5093131;28;20658;-69
2022/11/21 12:46:52;;;;;;;0.10;0.10;;;;;;;;;;5093433;28;20704;-70
2022/11/21 12:55:29;;;;;;;0.10;0.10;;;;;;;;;;5054405;28;20615;-72
2022/11/21 12:58:06;;;;;;;0.10;0.10;;;;;;;;;;5034278;28;20620;-71
2022/11/21 13:00:39;;;;;;;0.10;0.10;;;;;;;;;;5088819;27;20635;-70
2022/11/21 13:03:25;;;;;;;0.10;0.10;;;;;;;;;;5096825;28;20659;-71
2022/11/21 13:05:55;;;;;;;0.20;0.20;;;;;;;;;;5094196;28;20650;-70
2022/11/21 13:08:25;;;;;;;0.10;0.10;;;;;;;;;;5095898;28;20710;-70
2022/11/21 13:11:57;;;;;;;0.10;0.10;;;;;;;;;;5096020;28;20695;-70
2022/11/21 13:13:46;;;;;;;0.10;0.10;;;;;;;;;;5095160;28;20635;-70
2022/11/21 13:16:35;;;;;;;0.10;0.10;;;;;;;;;;5086901;28;20629;-70
2022/11/21 13:19:05;;;;;;;0.10;0.10;;;;;;;;;;5090255;28;20711;-70
2022/11/21 13:21:46;;;;;;;0.10;0.10;;;;;;;;;;5093013;28;21039;-71
2022/11/21 13:24:35;;;;;;;0.10;0.10;;;;;;;;;;5095735;28;20662;-70
2022/11/21 13:27:03;;;;;;;0.10;0.10;;;;;;;;;;5092795;28;20646;-71
2022/11/21 13:29:30;;;;;;;0.10;0.10;;;;;;;;;;5095491;28;20626;-71
2022/11/21 13:31:58;;;;;;;0.10;0.10;;;;;;;;;;5086617;28;20630;-70
2022/11/21 13:34:39;;;;;;;0.10;0.10;;;;;;;;;;5086657;28;20804;-70
2022/11/21 13:37:08;;;;;;;0.10;0.10;;;;;;;;;;5096489;28;20649;-70
2022/11/21 13:39:37;;;;;;;0.10;0.10;;;;;;;;;;5096253;28;20611;-70
2022/11/21 13:45:00;;;;;;;0.13;0.13;;;;;;;;;;5094642;28;20611;-71
2022/11/21 13:47:46;;;;;;;0.10;0.10;;;;;;;;;;5092274;28;20654;-70
2022/11/21 13:50:21;;;;;;;0.10;0.10;;;;;;;;;;5093508;28;20629;-70
2022/11/21 13:52:54;;;;;;;0.10;0.10;;;;;;;;;;5085824;28;20661;-71
2022/11/21 13:55:37;;;;;;;0.10;0.10;;;;;;;;;;5094267;28;20737;-70
2022/11/21 13:58:13;;;;;;;0.10;0.10;;;;;;;;;;5094903;28;20618;-70
2022/11/21 14:00:56;;;;;;;0.10;0.10;;;;;;;;;;5095395;28;20611;-71
2022/11/21 14:03:42;;;;;;;0.10;0.10;;;;;;;;;;5086132;28;21292;-70
2022/11/21 14:06:19;;;;;;;0.10;0.10;;;;;;;;;;5071569;28;20627;-71
2022/11/21 14:09:01;;;;;;;0.10;0.10;;;;;;;;;;5096852;28;20710;-71
2022/11/21 14:11:35;;;;;;;0.10;0.10;;;;;;;;;;5095667;28;20627;-71